Lady Ann Magee — 9HA2775 — position and weather

sailwx.info

Track history (hours):
 
Tides and Currents Weather Stations Pressure Air Temp Water Temp Dewpoint Dewpoint Depression Visibility Wind Speed Wind Dir Waves Ship Positions

Lady Ann Magee

Last reported at 2014-Sep-08 20:14 UTC. Time now 2014-Sep-16 05:03 UTC.
Position N 43°44' E 007°25'.

Length 50 m; draft 3.4 m.

Type: Ship. MMSI: 215660000.

Date/timePositionNaut miles runAvg speedWind from/ knotsBaromVisibWave heightAir tempDewpointWater temp
2014-Sep-08 20:14N 43°44' E 007°25'0 0.0
2014-Sep-08 19:32N 43°44' E 007°25'0 0.0
2014-Sep-08 18:14N 43°44' E 007°25'0 0.0
2014-Sep-08 17:20N 43°44' E 007°25'0 0.0
2014-Sep-08 11:26N 43°44' E 007°25'  
2014-Sep-03 06:04N 43°35' E 007°14'713.3
2014-Sep-03 05:33N 43°31' E 007°07'4 3.9
2014-Sep-03 04:30N 43°33' E 007°01'0 0.0
2014-Sep-03 03:33N 43°33' E 007°01'0 0.0
2014-Sep-03 02:30N 43°33' E 007°01'0 0.0
2014-Sep-03 01:18N 43°33' E 007°01'0 0.0
2014-Sep-03 00:24N 43°33' E 007°01'0 0.0
2014-Sep-02 23:24N 43°33' E 007°01'0 0.0
2014-Sep-02 22:06N 43°33' E 007°01'0 0.0
2014-Sep-02 21:30N 43°33' E 007°01'0 0.0
2014-Sep-02 20:33N 43°33' E 007°01'0 0.0
2014-Sep-02 19:27N 43°33' E 007°01'0 0.0
2014-Sep-02 18:33N 43°33' E 007°01'0 0.0
2014-Sep-02 17:31N 43°33' E 007°01'0 0.0
2014-Sep-02 16:21N 43°33' E 007°01'0 0.0
2014-Sep-02 15:30N 43°33' E 007°01'0 0.0
2014-Sep-02 14:27N 43°33' E 007°01'0 0.0
2014-Sep-02 13:30N 43°33' E 007°01'0 0.0
2014-Sep-02 12:33N 43°33' E 007°01'0 0.0
2014-Sep-02 11:32N 43°33' E 007°01'0 0.0
2014-Sep-02 10:20N 43°33' E 007°01'0 0.0
2014-Sep-02 09:29N 43°33' E 007°01'0 0.0
2014-Sep-02 08:32N 43°33' E 007°01'0 0.0
2014-Sep-02 07:29N 43°33' E 007°01'0 0.1
2014-Sep-02 06:33N 43°33' E 007°01'9 8.8
2014-Sep-02 05:33N 43°36' E 007°13'8 6.0
2014-Sep-02 04:18N 43°42' E 007°19'0 0.0
2014-Sep-02 03:24N 43°42' E 007°19'0 0.0
2014-Sep-02 02:18N 43°42' E 007°19'0 0.0
2014-Sep-02 01:18N 43°42' E 007°19'0 0.0
2014-Sep-02 00:30N 43°42' E 007°19'0 0.0
2014-Sep-01 23:30N 43°42' E 007°19'0 0.0
2014-Sep-01 22:30N 43°42' E 007°19'0 0.0
2014-Sep-01 14:18N 43°42' E 007°19'0 0.0
2014-Sep-01 13:18N 43°42' E 007°19'0 0.0
2014-Sep-01 12:24N 43°42' E 007°19'2 2.0
2014-Sep-01 11:33N 43°40' E 007°20'6 0.1
2014-Aug-30 20:17N 43°44' E 007°25'0 0.0
2014-Aug-30 16:17N 43°44' E 007°25'0 0.0
2014-Aug-30 10:11N 43°44' E 007°25'  
Track history (hours):
 
Tides and Currents Weather Stations Pressure Air Temp Water Temp Dewpoint Dewpoint Depression Visibility Wind Speed Wind Dir Waves Ship Positions

Lady Ann Magee

Last reported at 2014-Sep-08 20:14 UTC. Time now 2014-Sep-16 05:03 UTC.
Position N 43°44' E 007°25'.

Length 50 m; draft 3.4 m.

Type: Ship. MMSI: 215660000.

Date/timePositionNaut miles runAvg speedWind from/ knotsBaromVisibWave heightAir tempDewpointWater temp
2014-Sep-08 20:14N 43°44' E 007°25'0 0.0
2014-Sep-08 19:32N 43°44' E 007°25'0 0.0
2014-Sep-08 18:14N 43°44' E 007°25'0 0.0
2014-Sep-08 17:20N 43°44' E 007°25'0 0.0
2014-Sep-08 11:26N 43°44' E 007°25'  
2014-Sep-03 06:04N 43°35' E 007°14'713.3
2014-Sep-03 05:33N 43°31' E 007°07'4 3.9
2014-Sep-03 04:30N 43°33' E 007°01'0 0.0
2014-Sep-03 03:33N 43°33' E 007°01'0 0.0
2014-Sep-03 02:30N 43°33' E 007°01'0 0.0
2014-Sep-03 01:18N 43°33' E 007°01'0 0.0
2014-Sep-03 00:24N 43°33' E 007°01'0 0.0
2014-Sep-02 23:24N 43°33' E 007°01'0 0.0
2014-Sep-02 22:06N 43°33' E 007°01'0 0.0
2014-Sep-02 21:30N 43°33' E 007°01'0 0.0
2014-Sep-02 20:33N 43°33' E 007°01'0 0.0
2014-Sep-02 19:27N 43°33' E 007°01'0 0.0
2014-Sep-02 18:33N 43°33' E 007°01'0 0.0
2014-Sep-02 17:31N 43°33' E 007°01'0 0.0
2014-Sep-02 16:21N 43°33' E 007°01'0 0.0
2014-Sep-02 15:30N 43°33' E 007°01'0 0.0
2014-Sep-02 14:27N 43°33' E 007°01'0 0.0
2014-Sep-02 13:30N 43°33' E 007°01'0 0.0
2014-Sep-02 12:33N 43°33' E 007°01'0 0.0
2014-Sep-02 11:32N 43°33' E 007°01'0 0.0
2014-Sep-02 10:20N 43°33' E 007°01'0 0.0
2014-Sep-02 09:29N 43°33' E 007°01'0 0.0
2014-Sep-02 08:32N 43°33' E 007°01'0 0.0
2014-Sep-02 07:29N 43°33' E 007°01'0 0.1
2014-Sep-02 06:33N 43°33' E 007°01'9 8.8
2014-Sep-02 05:33N 43°36' E 007°13'8 6.0
2014-Sep-02 04:18N 43°42' E 007°19'0 0.0
2014-Sep-02 03:24N 43°42' E 007°19'0 0.0
2014-Sep-02 02:18N 43°42' E 007°19'0 0.0
2014-Sep-02 01:18N 43°42' E 007°19'0 0.0
2014-Sep-02 00:30N 43°42' E 007°19'0 0.0
2014-Sep-01 23:30N 43°42' E 007°19'0 0.0
2014-Sep-01 22:30N 43°42' E 007°19'0 0.0
2014-Sep-01 14:18N 43°42' E 007°19'0 0.0
2014-Sep-01 13:18N 43°42' E 007°19'0 0.0
2014-Sep-01 12:24N 43°42' E 007°19'2 2.0
2014-Sep-01 11:33N 43°40' E 007°20'6 0.1
2014-Aug-30 20:17N 43°44' E 007°25'0 0.0
2014-Aug-30 16:17N 43°44' E 007°25'0 0.0
2014-Aug-30 10:11N 43°44' E 007°25'  

Dump ship's entire track history